Airfield :







YOU CAN JOIN US ON...

 
LOGIN :

Register | Disclaimer

   EN    FR    IT 

 









Legend :    VFR   Marginal VFR   IFR   Intensive IFR   Very Intensive IFR
Visi :
Ceiling :
>= 8 km
>= 3000ft
5 to 8 km
1000 to 3000 ft
1500m to 5 km
500 to 1000 ft
800 to 1500m
200 to 500 ft
< 800m
< 200 ft
Symbols :   Thunderstorms  Fog  Heavy snow  Heavy precipitations  Wind > 20 kt






- Airport Elevation : 1009 ft
- IATA code : ORH


KORH - Worcester Regional

CURRENT METAR :
  • 151154Z 26020G35KT 10SM OVC037 03/ A2942 RMK AO2 PK WND 27035/1123 SLP966 70023 T0033 10044 20028 51041 $

EXPIRED METARs :
  • 151054Z 26017G34KT 10SM OVC030 03/M01 A2939 RMK AO2 PK WND 25035/1005 SLP955 T00331011 $
  • 150954Z AUTO 26023G36KT 10SM SCT030 BKN100 03/ A2933 RMK AO2 PK WND 27039/0942 SLP938 T0033 $

TAF KORH
Valid from the 15 at 12:00 until the 16 at 12:00 UTC


151144Z 1512/1612 26020G35KT P6SM BKN030
FM151500 26022G42KT P6SM BKN040
FM160000 28019G35KT P6SM FEW250
FM160300 28016G30KT P6SM FEW250
FM160900 28011G22KT P6SM FEW150
FM161100 27009KT P6SM SCT120



MET'MAP, your aeronautical weather chart ! - Copyright ORBIFLY December 2007 - Disclaimer

ORBIFLY MET'MAP TEAM :

Programming & Development : Alexandra Zaïnal
Concept & original design : Baudouin d'Aumeries
Assistance for programming : Marc-Olivier Méhu
Technical & hardware support : Manuel Goepfert

Contact : metmap@orbifly.com




SOURCES & CREDITS :

   NOAA